London Heathrow Airport

EGLL | LHR

London , England , United Kingdom

Thursday, September 19th, 2019 | 20:24

Weather

EGLL 191920Z AUTO 10007KT 9999 NCD 15/08 Q1030

Charts

1 Available

Gates

243 Available

Runways

2 Available

Events

No events for this airport


New event